Time;durP1;ratioP1;P1;durP2;ratioP2;P2;SDS_P1;SDS_P2;PMS_P1;PMS_P2;Temp;Humidity;BMP_temperature;BMP_pressure;BME280_temperature;BME280_humidity;BME280_pressure;Samples;Min_cycle;Max_cycle;Signal;HPM_P1;HPM_P2
2022/04/07 00:01:49;;;;;;;7.35;2.95;;;9.90;93.30;;;;;;609921;235;26591;-65
2022/04/07 00:04:17;;;;;;;4.35;2.65;;;9.80;93.30;;;;;;609875;236;26601;-65
2022/04/07 00:06:44;;;;;;;2.55;2.35;;;9.80;93.40;;;;;;611581;233;26886;-65
2022/04/07 00:09:12;;;;;;;3.70;2.90;;;9.90;93.60;;;;;;611073;235;26574;-65
2022/04/07 00:11:39;;;;;;;2.80;2.50;;;9.80;93.30;;;;;;610768;235;26817;-65
2022/04/07 00:14:06;;;;;;;3.45;3.15;;;9.80;93.80;;;;;;610610;235;26571;-65
2022/04/07 00:16:33;;;;;;;3.30;3.00;;;9.90;93.50;;;;;;610416;235;26845;-65
2022/04/07 00:19:01;;;;;;;3.78;2.83;;;9.90;93.50;;;;;;610443;236;26562;-65
2022/04/07 00:21:38;;;;;;;3.20;2.90;;;9.90;93.50;;;;;;610403;231;26591;-65
2022/04/07 00:24:06;;;;;;;2.60;2.37;;;9.90;93.60;;;;;;610146;236;26928;-65
2022/04/07 00:26:34;;;;;;;5.18;2.58;;;9.90;93.50;;;;;;610170;235;26665;-65
2022/04/07 00:29:00;;;;;;;3.95;2.90;;;9.90;93.40;;;;;;610443;236;26842;-65
2022/04/07 00:31:28;;;;;;;2.92;2.62;;;10.00;92.90;;;;;;610541;235;26611;-65
2022/04/07 00:33:55;;;;;;;3.78;2.65;;;9.90;93.50;;;;;;610521;236;26601;-65
2022/04/07 00:36:23;;;;;;;3.45;2.75;;;9.70;93.70;;;;;;610511;236;26616;-65
2022/04/07 00:38:50;;;;;;;3.03;2.55;;;9.70;93.80;;;;;;610553;236;26604;-65
2022/04/07 00:41:17;;;;;;;3.12;2.83;;;9.70;93.70;;;;;;610197;235;26620;-66
2022/04/07 00:43:45;;;;;;;3.37;2.65;;;9.60;94.10;;;;;;609866;236;26590;-65
2022/04/07 00:46:12;;;;;;;3.80;2.58;;;9.60;94.10;;;;;;609825;235;26874;-65
2022/04/07 00:48:39;;;;;;;5.07;2.72;;;9.60;94.20;;;;;;609815;236;26587;-65
2022/04/07 00:51:07;;;;;;;3.15;2.30;;;9.60;94.20;;;;;;609826;235;26866;-65
2022/04/07 00:53:34;;;;;;;2.85;2.65;;;9.60;94.30;;;;;;609874;236;26577;-65
2022/04/07 00:56:01;;;;;;;4.90;2.65;;;9.60;93.90;;;;;;609835;235;26573;-65
2022/04/07 00:58:29;;;;;;;3.33;2.47;;;9.40;94.30;;;;;;609889;235;26595;-65
2022/04/07 01:00:57;;;;;;;3.15;2.67;;;9.40;94.30;;;;;;609900;235;26826;-65
2022/04/07 01:03:24;;;;;;;3.03;2.35;;;9.40;94.40;;;;;;609862;235;26633;-65
2022/04/07 01:05:51;;;;;;;2.70;2.45;;;9.30;94.50;;;;;;609847;235;26868;-65
2022/04/07 01:08:19;;;;;;;3.28;2.75;;;9.30;94.70;;;;;;609816;235;26581;-65
2022/04/07 01:10:47;;;;;;;6.05;2.40;;;9.30;94.70;;;;;;609840;235;26577;-65
2022/04/07 01:13:15;;;;;;;2.62;2.42;;;9.30;94.70;;;;;;609969;235;26604;-65
2022/04/07 01:15:41;;;;;;;4.93;2.87;;;9.30;94.50;;;;;;609874;236;26632;-65
2022/04/07 01:18:08;;;;;;;2.37;2.20;;;9.30;94.50;;;;;;611491;233;26848;-65
2022/04/07 01:20:36;;;;;;;2.58;2.37;;;9.30;94.70;;;;;;611101;235;26648;-65
2022/04/07 01:23:03;;;;;;;2.65;2.45;;;9.40;94.90;;;;;;610742;235;26884;-65
2022/04/07 01:25:31;;;;;;;2.92;2.62;;;9.50;94.50;;;;;;610604;235;26584;-65
2022/04/07 01:27:59;;;;;;;2.50;2.30;;;9.60;94.40;;;;;;610372;236;26577;-66
2022/04/07 01:30:26;;;;;;;3.62;2.58;;;9.50;94.40;;;;;;610451;236;26587;-66
2022/04/07 01:32:54;;;;;;;2.55;2.35;;;9.60;94.70;;;;;;610456;236;26824;-66
2022/04/07 01:35:22;;;;;;;2.83;2.58;;;9.70;94.30;;;;;;610093;235;26576;-66
2022/04/07 01:37:48;;;;;;;3.28;2.60;;;9.60;94.60;;;;;;610142;236;26638;-66
2022/04/07 01:40:16;;;;;;;3.20;2.62;;;9.60;94.60;;;;;;610145;235;26853;-65
2022/04/07 01:42:45;;;;;;;2.97;2.22;;;9.50;94.40;;;;;;610393;235;26636;-65
2022/04/07 01:45:11;;;;;;;3.42;2.50;;;9.40;94.70;;;;;;610003;234;27263;-65
2022/04/07 01:47:38;;;;;;;2.92;2.42;;;9.30;94.90;;;;;;610161;235;26799;-65
2022/04/07 01:50:07;;;;;;;2.50;2.30;;;9.30;95.10;;;;;;610139;235;26633;-64
2022/04/07 01:52:35;;;;;;;2.80;2.45;;;9.20;95.00;;;;;;610057;236;26655;-65
2022/04/07 01:55:02;;;;;;;2.70;2.25;;;9.30;95.30;;;;;;609873;236;26549;-65
2022/04/07 01:57:31;;;;;;;3.22;2.37;;;9.40;95.10;;;;;;609858;235;26874;-65
2022/04/07 01:59:58;;;;;;;3.08;2.40;;;9.40;95.10;;;;;;609823;231;26604;-64
2022/04/07 02:02:26;;;;;;;3.67;2.50;;;9.50;95.00;;;;;;609782;236;26895;-64
2022/04/07 02:04:53;;;;;;;2.17;2.08;;;9.50;95.10;;;;;;609833;235;26566;-65
2022/04/07 02:07:20;;;;;;;3.05;2.10;;;9.50;95.00;;;;;;609816;235;26867;-65
2022/04/07 02:09:47;;;;;;;2.33;2.10;;;9.50;95.20;;;;;;609902;235;26585;-65
2022/04/07 02:12:14;;;;;;;4.85;2.42;;;9.40;95.20;;;;;;609902;235;26630;-65
2022/04/07 02:14:42;;;;;;;3.83;2.33;;;9.50;95.40;;;;;;609164;235;26655;-65
2022/04/07 02:17:10;;;;;;;2.40;2.20;;;9.40;95.30;;;;;;609833;236;26832;-65
2022/04/07 02:19:37;;;;;;;3.33;2.12;;;9.50;95.30;;;;;;609902;236;26598;-65
2022/04/07 02:22:04;;;;;;;2.17;2.00;;;9.50;95.20;;;;;;609856;235;26858;-65
2022/04/07 02:24:32;;;;;;;3.28;2.05;;;9.40;95.60;;;;;;609816;236;26585;-65
2022/04/07 02:26:59;;;;;;;2.33;2.17;;;9.40;95.60;;;;;;609889;236;26706;-65
2022/04/07 02:29:26;;;;;;;2.03;1.90;;;9.30;95.60;;;;;;611288;233;26641;-65
2022/04/07 02:31:54;;;;;;;2.22;2.03;;;9.20;95.80;;;;;;611035;235;26824;-65
2022/04/07 02:34:21;;;;;;;2.47;2.28;;;9.10;95.90;;;;;;610727;235;26587;-65
2022/04/07 02:36:48;;;;;;;2.47;2.28;;;9.10;96.40;;;;;;610718;235;26875;-65
2022/04/07 02:39:16;;;;;;;2.50;2.30;;;8.90;96.40;;;;;;610460;236;26616;-65
2022/04/07 02:41:44;;;;;;;2.55;2.35;;;8.90;96.80;;;;;;610419;236;26584;-65
2022/04/07 02:44:11;;;;;;;2.55;1.98;;;8.90;97.00;;;;;;610410;236;26865;-65
2022/04/07 02:46:38;;;;;;;3.30;2.25;;;8.90;97.10;;;;;;610282;235;26640;-65
2022/04/07 02:49:06;;;;;;;1.92;1.83;;;8.90;97.10;;;;;;610138;236;26641;-65
2022/04/07 02:51:33;;;;;;;2.00;1.90;;;8.80;97.10;;;;;;610169;235;27261;-65
2022/04/07 02:54:01;;;;;;;2.40;2.20;;;8.80;97.30;;;;;;610154;235;26644;-65
2022/04/07 02:56:29;;;;;;;2.37;2.20;;;8.70;97.30;;;;;;610145;235;26643;-65
2022/04/07 02:58:57;;;;;;;2.28;2.17;;;8.70;97.30;;;;;;610245;236;26616;-65
2022/04/07 03:01:24;;;;;;;2.05;1.95;;;8.70;97.50;;;;;;610251;235;26628;-65
2022/04/07 03:03:55;;;;;;;2.25;2.10;;;8.70;97.60;;;;;;610154;235;27126;-65
2022/04/07 03:06:21;;;;;;;2.10;1.98;;;8.70;97.60;;;;;;609940;235;26840;-65
2022/04/07 03:08:48;;;;;;;3.42;2.25;;;8.70;97.70;;;;;;609935;236;26629;-65
2022/04/07 03:11:15;;;;;;;2.17;2.08;;;8.70;97.80;;;;;;609954;235;27239;-65
2022/04/07 03:13:43;;;;;;;3.85;1.80;;;8.70;97.90;;;;;;609950;236;26598;-65
2022/04/07 03:16:11;;;;;;;2.28;1.83;;;8.60;97.90;;;;;;609932;235;26628;-65
2022/04/07 03:18:38;;;;;;;2.45;2.00;;;8.60;97.90;;;;;;609853;236;26592;-65
2022/04/07 03:21:05;;;;;;;2.05;1.95;;;8.60;98.00;;;;;;609922;236;26561;-65
2022/04/07 03:23:32;;;;;;;2.47;2.28;;;8.60;98.20;;;;;;609861;235;26852;-65
2022/04/07 03:26:01;;;;;;;2.50;2.15;;;8.60;98.30;;;;;;609837;235;26606;-65
2022/04/07 03:28:27;;;;;;;2.08;1.98;;;8.60;98.30;;;;;;609862;235;26580;-65
2022/04/07 03:30:55;;;;;;;3.28;1.90;;;8.60;98.30;;;;;;609863;236;26605;-65
2022/04/07 03:33:22;;;;;;;1.80;1.70;;;8.70;98.40;;;;;;609857;235;26588;-65
2022/04/07 03:35:49;;;;;;;2.30;2.10;;;8.70;98.00;;;;;;609831;235;26981;-74
2022/04/07 03:38:16;;;;;;;2.90;1.98;;;8.70;98.00;;;;;;609857;235;26613;-73
2022/04/07 03:40:43;;;;;;;2.40;2.00;;;8.70;98.30;;;;;;611128;233;26871;-74
2022/04/07 03:43:11;;;;;;;2.40;2.08;;;8.70;98.00;;;;;;611091;235;26576;-74
2022/04/07 03:45:39;;;;;;;3.80;2.37;;;8.70;98.00;;;;;;610737;235;26610;-74
2022/04/07 03:48:07;;;;;;;3.62;1.98;;;8.70;98.00;;;;;;610776;235;26623;-74
2022/04/07 03:50:34;;;;;;;2.00;1.87;;;8.80;98.00;;;;;;610469;236;26577;-74
2022/04/07 03:53:02;;;;;;;2.10;1.92;;;8.80;98.10;;;;;;610424;235;26597;-74
2022/04/07 03:55:29;;;;;;;2.37;1.87;;;8.80;98.10;;;;;;610412;235;26627;-74
2022/04/07 03:57:56;;;;;;;2.10;1.92;;;8.80;97.90;;;;;;610381;236;26579;-74
2022/04/07 04:00:25;;;;;;;4.57;1.90;;;8.80;97.90;;;;;;610164;235;26849;-74
2022/04/07 04:02:51;;;;;;;2.10;1.90;;;8.90;98.40;;;;;;610138;236;26633;-74
2022/04/07 04:05:18;;;;;;;2.58;1.80;;;8.90;98.00;;;;;;610152;236;26852;-71
2022/04/07 04:07:45;;;;;;;1.90;1.70;;;9.00;97.90;;;;;;610097;236;26631;-71
2022/04/07 04:10:12;;;;;;;1.87;1.77;;;9.00;98.00;;;;;;610122;235;26624;-73
2022/04/07 04:12:40;;;;;;;1.92;1.83;;;9.10;97.70;;;;;;610135;232;26622;-73
2022/04/07 04:15:09;;;;;;;1.90;1.80;;;9.20;97.80;;;;;;610028;235;26636;-73
2022/04/07 04:17:36;;;;;;;1.85;1.75;;;9.10;97.70;;;;;;609908;236;26637;-72
2022/04/07 04:20:04;;;;;;;1.98;1.73;;;9.20;97.80;;;;;;609844;236;26830;-73
2022/04/07 04:22:31;;;;;;;1.92;1.83;;;9.20;97.60;;;;;;609793;231;26584;-73
2022/04/07 04:24:58;;;;;;;1.92;1.83;;;9.20;97.70;;;;;;609768;236;26807;-73
2022/04/07 04:27:25;;;;;;;1.70;1.60;;;9.30;97.70;;;;;;609911;236;26651;-74
2022/04/07 04:29:52;;;;;;;2.20;1.80;;;9.30;97.40;;;;;;609901;236;26588;-73
2022/04/07 04:32:20;;;;;;;2.12;1.92;;;9.40;97.40;;;;;;609950;236;26614;-74
2022/04/07 04:34:48;;;;;;;1.60;1.50;;;9.40;97.40;;;;;;609911;235;26584;-72
2022/04/07 04:37:16;;;;;;;4.35;1.98;;;9.40;97.50;;;;;;609920;235;26857;-69
2022/04/07 04:39:43;;;;;;;1.95;1.70;;;9.40;97.30;;;;;;609901;236;26581;-68
2022/04/07 04:42:10;;;;;;;2.10;1.60;;;9.40;97.20;;;;;;609837;235;26835;-69
2022/04/07 04:44:38;;;;;;;2.20;1.60;;;9.50;97.30;;;;;;609862;236;26607;-68
2022/04/07 04:47:06;;;;;;;1.70;1.60;;;9.40;97.30;;;;;;605185;236;26644;-70
2022/04/07 04:49:33;;;;;;;1.90;1.80;;;9.50;97.40;;;;;;604732;236;26624;-70
2022/04/07 04:52:01;;;;;;;1.50;1.40;;;9.50;97.30;;;;;;606022;234;26880;-70
2022/04/07 04:54:28;;;;;;;2.60;1.65;;;9.50;97.20;;;;;;604229;236;26628;-70
2022/04/07 04:56:55;;;;;;;1.60;1.50;;;9.60;97.00;;;;;;604137;235;26882;-70
2022/04/07 04:59:23;;;;;;;1.70;1.60;;;9.70;97.10;;;;;;604567;235;26587;-70
2022/04/07 05:01:51;;;;;;;1.42;1.33;;;9.70;96.80;;;;;;602134;239;26589;-70
2022/04/07 05:04:18;;;;;;;1.95;1.50;;;9.70;96.80;;;;;;602092;238;26585;-70
2022/04/07 05:06:45;;;;;;;1.98;1.80;;;9.80;96.90;;;;;;602140;237;26609;-70
2022/04/07 05:09:13;;;;;;;1.50;1.40;;;9.80;96.60;;;;;;605416;236;26820;-69
2022/04/07 05:11:40;;;;;;;1.80;1.50;;;9.80;96.70;;;;;;604502;235;26588;-70
2022/04/07 05:14:07;;;;;;;1.50;1.40;;;9.90;96.80;;;;;;603932;236;26757;-72
2022/04/07 05:16:36;;;;;;;3.30;1.60;;;9.90;96.50;;;;;;607619;234;26662;-71
2022/04/07 05:19:03;;;;;;;1.77;1.67;;;9.80;96.40;;;;;;604255;236;26581;-71
2022/04/07 05:21:31;;;;;;;2.65;2.45;;;9.90;96.60;;;;;;604413;236;26814;-72
2022/04/07 05:23:58;;;;;;;5.68;1.65;;;9.90;96.40;;;;;;607182;235;27089;-73
2022/04/07 05:26:26;;;;;;;1.73;1.58;;;9.80;96.60;;;;;;603816;236;26636;-72
2022/04/07 05:28:54;;;;;;;1.30;1.20;;;9.80;96.60;;;;;;605062;235;26651;-70
2022/04/07 05:31:21;;;;;;;34.50;9.20;;;9.70;96.60;;;;;;604084;235;26666;-71
2022/04/07 05:33:48;;;;;;;292.20;30.67;;;9.80;96.90;;;;;;605604;231;26627;-70
2022/04/07 05:36:16;;;;;;;1007.13;96.60;;;9.70;96.80;;;;;;604147;236;26773;-71
2022/04/07 05:38:43;;;;;;;1180.40;101.87;;;9.80;96.80;;;;;;602963;237;26601;-72
2022/04/07 05:41:11;;;;;;;2.47;2.08;;;9.80;96.80;;;;;;604127;236;26647;-70
2022/04/07 05:43:39;;;;;;;3.15;1.95;;;9.90;96.70;;;;;;605492;235;26630;-69
2022/04/07 05:46:06;;;;;;;4.55;2.10;;;9.80;96.70;;;;;;602014;237;26850;-69
2022/04/07 05:48:33;;;;;;;3.80;2.37;;;9.90;96.80;;;;;;602137;238;26623;-70
2022/04/07 05:51:00;;;;;;;5.37;2.75;;;10.00;96.10;;;;;;603397;237;26841;-70
2022/04/07 05:53:28;;;;;;;8.80;3.83;;;10.00;96.00;;;;;;603260;238;26569;-70
2022/04/07 05:55:55;;;;;;;31.10;9.95;;;10.20;96.00;;;;;;602322;238;26840;-70
2022/04/07 05:58:22;;;;;;;27.95;9.48;;;10.20;95.60;;;;;;601397;238;26647;-69
2022/04/07 06:00:50;;;;;;;31.52;10.15;;;10.30;95.80;;;;;;601322;239;27242;-69
2022/04/07 06:03:17;;;;;;;19.85;8.02;;;10.40;95.60;;;;;;602360;237;26627;-69
2022/04/07 06:05:45;;;;;;;23.75;8.57;;;10.50;96.10;;;;;;602755;238;26650;-69
2022/04/07 06:08:13;;;;;;;25.02;7.75;;;10.60;95.60;;;;;;602247;237;26586;-69
2022/04/07 06:10:41;;;;;;;4.50;2.40;;;10.60;95.30;;;;;;602398;239;26652;-72
2022/04/07 06:13:09;;;;;;;1.87;1.77;;;10.60;95.20;;;;;;602142;239;26593;-69
2022/04/07 06:15:35;;;;;;;6.50;2.15;;;10.60;95.10;;;;;;602132;239;26577;-69
2022/04/07 06:18:05;;;;;;;1.37;1.27;;;10.70;95.00;;;;;;602108;239;26842;-69
2022/04/07 06:20:30;;;;;;;1.92;1.80;;;10.70;94.90;;;;;;601949;239;26585;-69
2022/04/07 06:22:57;;;;;;;4.85;3.08;;;10.80;94.90;;;;;;601790;239;26824;-69
2022/04/07 06:25:24;;;;;;;1.23;1.12;;;11.00;94.70;;;;;;601825;237;26575;-69
2022/04/07 06:27:52;;;;;;;1.92;1.48;;;11.00;94.70;;;;;;601872;237;26836;-70
2022/04/07 06:30:19;;;;;;;3.70;2.62;;;11.10;94.60;;;;;;601786;239;26596;-70
2022/04/07 06:32:46;;;;;;;4.47;1.67;;;11.20;94.30;;;;;;601862;237;26590;-70
2022/04/07 06:35:14;;;;;;;1.40;1.30;;;11.30;94.40;;;;;;601764;238;26570;-70
2022/04/07 06:38:03;;;;;;;3.10;1.35;;;11.30;94.10;;;;;;601871;237;26827;-70
2022/04/07 06:40:31;;;;;;;1.40;1.30;;;11.40;93.90;;;;;;601588;237;26633;-69
2022/04/07 06:42:59;;;;;;;1.92;1.75;;;11.50;93.90;;;;;;601508;237;26694;-70
2022/04/07 06:45:26;;;;;;;1.20;1.15;;;11.40;93.80;;;;;;601463;238;26868;-69
2022/04/07 06:47:53;;;;;;;1.35;1.25;;;11.40;94.20;;;;;;601529;239;26711;-70
2022/04/07 06:50:20;;;;;;;4.57;2.03;;;11.40;93.70;;;;;;601537;237;26998;-70
2022/04/07 06:52:48;;;;;;;1.10;1.10;;;11.50;93.60;;;;;;601597;237;26595;-70
2022/04/07 06:55:15;;;;;;;1.12;1.05;;;11.50;94.60;;;;;;601595;239;26880;-70
2022/04/07 06:57:48;;;;;;;3.08;2.22;;;11.50;94.90;;;;;;601580;237;26622;-71
2022/04/07 07:00:17;;;;;;;1.70;1.60;;;11.60;94.70;;;;;;601583;237;26862;-71
2022/04/07 07:02:44;;;;;;;1.17;1.10;;;11.50;94.50;;;;;;601572;236;26961;-71
2022/04/07 07:05:11;;;;;;;1.00;1.00;;;11.50;94.60;;;;;;601552;237;26869;-71
2022/04/07 07:07:38;;;;;;;1.70;1.60;;;11.50;94.60;;;;;;601584;237;26661;-71
2022/04/07 07:10:06;;;;;;;1.00;1.00;;;11.50;94.30;;;;;;601544;237;26898;-71
2022/04/07 07:12:34;;;;;;;1.62;1.52;;;11.50;94.00;;;;;;601544;239;26652;-71
2022/04/07 07:15:01;;;;;;;1.62;1.52;;;11.40;93.90;;;;;;602466;237;26657;-71
2022/04/07 07:17:33;;;;;;;1.62;1.30;;;11.50;94.00;;;;;;602803;237;26921;-71
2022/04/07 07:19:55;;;;;;;1.50;1.40;;;11.50;93.80;;;;;;602215;238;26584;-71
2022/04/07 07:22:23;;;;;;;1.50;1.40;;;11.70;93.80;;;;;;601961;236;26815;-71
2022/04/07 07:24:51;;;;;;;2.25;2.03;;;11.80;93.50;;;;;;602103;239;26584;-71
2022/04/07 07:27:17;;;;;;;1.80;1.70;;;12.20;92.90;;;;;;602091;239;26842;-71
2022/04/07 07:29:45;;;;;;;1.33;1.23;;;12.50;92.20;;;;;;602131;239;26600;-71
2022/04/07 07:32:13;;;;;;;1.15;1.10;;;12.50;92.10;;;;;;602088;239;26589;-71
2022/04/07 07:34:41;;;;;;;2.67;1.80;;;12.50;91.90;;;;;;601809;237;26602;-71
2022/04/07 07:37:09;;;;;;;1.80;1.70;;;12.50;91.70;;;;;;601799;238;26600;-71
2022/04/07 07:39:36;;;;;;;1.75;1.40;;;12.50;91.70;;;;;;601816;239;26625;-71
2022/04/07 07:42:04;;;;;;;1.10;1.10;;;12.40;92.10;;;;;;601851;237;26586;-71
2022/04/07 07:44:31;;;;;;;1.67;1.55;;;12.30;91.90;;;;;;601843;239;26856;-71
2022/04/07 07:46:59;;;;;;;1.95;1.80;;;12.30;91.60;;;;;;601829;237;26617;-71
2022/04/07 07:49:26;;;;;;;1.62;1.52;;;12.50;91.30;;;;;;601846;239;26832;-71
2022/04/07 07:51:53;;;;;;;1.50;1.40;;;12.70;91.20;;;;;;601572;232;26627;-71
2022/04/07 07:54:20;;;;;;;1.33;1.30;;;12.90;90.40;;;;;;601503;239;27244;-71
2022/04/07 07:56:48;;;;;;;2.20;2.00;;;13.20;90.20;;;;;;601565;239;26668;-71
2022/04/07 07:59:20;;;;;;;1.52;1.45;;;13.30;89.70;;;;;;601574;239;26635;-71
2022/04/07 08:01:44;;;;;;;1.37;1.20;;;13.20;89.50;;;;;;601257;239;26629;-71
2022/04/07 08:04:13;;;;;;;1.10;1.10;;;13.20;89.80;;;;;;601565;232;26648;-71
2022/04/07 08:06:41;;;;;;;1.48;1.37;;;13.10;89.20;;;;;;601469;237;26651;-71
2022/04/07 08:09:10;;;;;;;1.92;1.65;;;13.00;89.60;;;;;;601438;239;26641;-71
2022/04/07 08:11:37;;;;;;;1.60;1.50;;;12.90;89.90;;;;;;601544;237;26655;-71
2022/04/07 08:14:04;;;;;;;1.12;1.00;;;12.90;89.80;;;;;;601622;238;26626;-71
2022/04/07 08:16:31;;;;;;;2.22;1.85;;;13.00;90.30;;;;;;601625;239;26653;-72
2022/04/07 08:18:59;;;;;;;1.30;1.30;;;12.90;90.30;;;;;;601627;239;27331;-72
2022/04/07 08:21:27;;;;;;;2.33;2.12;;;13.10;90.40;;;;;;601611;237;26829;-72
2022/04/07 08:23:55;;;;;;;1.42;1.33;;;13.10;90.40;;;;;;601633;237;26854;-72
2022/04/07 08:26:22;;;;;;;2.00;1.50;;;13.00;90.30;;;;;;602373;237;26652;-72
2022/04/07 08:28:49;;;;;;;1.60;1.50;;;13.10;90.70;;;;;;602942;236;27169;-72
2022/04/07 08:31:16;;;;;;;1.42;1.33;;;13.20;90.10;;;;;;602600;239;26547;-72
2022/04/07 08:33:43;;;;;;;1.10;1.00;;;13.50;89.70;;;;;;602438;232;26646;-72
2022/04/07 08:36:11;;;;;;;2.60;2.40;;;13.80;88.00;;;;;;602196;237;26664;-71
2022/04/07 08:38:39;;;;;;;1.35;1.25;;;14.00;87.30;;;;;;602164;239;26585;-71
2022/04/07 08:41:07;;;;;;;2.47;2.28;;;14.10;86.40;;;;;;602145;237;26555;-72
2022/04/07 08:43:38;;;;;;;1.00;1.00;;;14.10;86.50;;;;;;602047;239;26584;-72
2022/04/07 08:46:02;;;;;;;1.35;1.08;;;14.40;85.90;;;;;;601653;238;26611;-73
2022/04/07 08:48:30;;;;;;;1.83;1.42;;;14.60;86.00;;;;;;601880;239;26601;-72
2022/04/07 08:50:57;;;;;;;1.73;1.62;;;14.70;85.50;;;;;;601823;239;26590;-72
2022/04/07 08:53:24;;;;;;;1.27;1.20;;;14.50;84.90;;;;;;601739;238;26574;-72
2022/04/07 08:55:52;;;;;;;1.50;1.33;;;14.60;84.50;;;;;;601812;239;26613;-72
2022/04/07 08:58:19;;;;;;;1.60;1.50;;;14.40;84.20;;;;;;601857;239;26826;-72
2022/04/07 09:00:48;;;;;;;2.30;2.15;;;14.20;84.40;;;;;;601897;238;26579;-72
2022/04/07 09:03:14;;;;;;;1.55;1.45;;;14.10;84.60;;;;;;601499;239;26987;-72
2022/04/07 09:05:56;;;;;;;1.62;1.52;;;14.40;84.80;;;;;;601493;237;26653;-71
2022/04/07 09:08:30;;;;;;;2.85;2.55;;;14.40;84.20;;;;;;601544;237;26658;-71
2022/04/07 09:10:56;;;;;;;3.60;1.77;;;14.50;85.00;;;;;;601446;239;26858;-72
2022/04/07 09:13:23;;;;;;;1.10;1.10;;;14.40;84.20;;;;;;601569;237;26634;-72
2022/04/07 09:15:51;;;;;;;0.85;0.85;;;14.40;84.50;;;;;;601482;237;26677;-72
2022/04/07 09:18:24;;;;;;;1.98;1.87;;;14.90;83.90;;;;;;601502;237;26613;-72
2022/04/07 09:20:51;;;;;;;1.40;1.30;;;15.00;82.80;;;;;;601841;239;26626;-72
2022/04/07 09:23:18;;;;;;;2.65;2.40;;;15.00;82.80;;;;;;601907;239;26610;-72
2022/04/07 09:25:47;;;;;;;1.90;1.80;;;15.10;82.40;;;;;;601839;239;26628;-71
2022/04/07 09:28:12;;;;;;;0.93;0.90;;;15.10;83.20;;;;;;601805;239;26611;-71
2022/04/07 09:30:41;;;;;;;0.93;0.93;;;15.10;82.90;;;;;;600975;239;26647;-71
2022/04/07 09:33:07;;;;;;;1.15;1.15;;;15.30;82.60;;;;;;601801;239;26855;-71
2022/04/07 09:35:34;;;;;;;1.80;1.70;;;15.30;82.70;;;;;;599856;239;26658;-67
2022/04/07 09:38:01;;;;;;;2.22;2.12;;;15.20;82.20;;;;;;602890;235;26995;-67
2022/04/07 09:40:28;;;;;;;1.10;1.10;;;14.90;82.70;;;;;;605465;234;26581;-67
2022/04/07 09:42:56;;;;;;;1.52;1.42;;;14.90;83.30;;;;;;605813;235;26852;-66
2022/04/07 09:45:24;;;;;;;1.10;1.10;;;15.00;82.90;;;;;;605643;234;26631;-68
2022/04/07 09:47:51;;;;;;;1.52;1.52;;;15.10;83.40;;;;;;604857;234;26618;-67
2022/04/07 09:50:22;;;;;;;1.92;1.80;;;14.90;81.20;;;;;;602182;239;26581;-68
2022/04/07 09:52:56;;;;;;;1.40;1.30;;;15.00;81.80;;;;;;601735;239;27270;-68
2022/04/07 09:55:24;;;;;;;1.12;1.12;;;14.90;81.30;;;;;;602066;237;26598;-68
2022/04/07 09:57:52;;;;;;;2.67;2.17;;;14.90;80.30;;;;;;601659;239;26566;-67
2022/04/07 10:00:20;;;;;;;3.22;2.87;;;15.00;79.80;;;;;;601878;237;26547;-68
2022/04/07 10:02:47;;;;;;;1.12;1.12;;;14.90;79.60;;;;;;601935;239;26538;-67
2022/04/07 10:05:15;;;;;;;1.10;1.10;;;14.70;81.10;;;;;;601856;237;26588;-67
2022/04/07 10:07:43;;;;;;;1.05;0.93;;;14.70;81.70;;;;;;601810;237;26578;-68
2022/04/07 10:10:11;;;;;;;1.05;1.05;;;14.70;81.70;;;;;;601820;239;26801;-68
2022/04/07 10:12:37;;;;;;;1.40;1.35;;;14.60;82.30;;;;;;601789;239;26568;-68
2022/04/07 10:15:05;;;;;;;0.80;0.80;;;14.60;81.60;;;;;;601512;237;26936;-68
2022/04/07 10:17:32;;;;;;;0.75;0.75;;;14.80;81.90;;;;;;601583;238;26934;-68
2022/04/07 10:19:59;;;;;;;0.90;0.90;;;15.20;80.50;;;;;;601553;237;26649;-68
2022/04/07 10:22:45;;;;;;;3.50;3.20;;;15.50;80.10;;;;;;601456;239;26851;-68
2022/04/07 10:25:12;;;;;;;2.00;1.90;;;15.70;79.20;;;;;;596904;238;26647;-68
2022/04/07 10:27:54;;;;;;;3.17;2.67;;;15.40;79.30;;;;;;601880;237;26838;-68
2022/04/07 10:30:21;;;;;;;1.10;1.08;;;15.20;79.70;;;;;;601895;237;26601;-69
2022/04/07 10:32:52;;;;;;;4.47;3.45;;;14.90;80.50;;;;;;601873;237;26613;-67
2022/04/07 10:35:36;;;;;;;1.60;1.50;;;14.90;80.50;;;;;;601763;239;26621;-67
2022/04/07 10:38:03;;;;;;;0.80;0.80;;;14.90;80.90;;;;;;601902;237;26818;-67
2022/04/07 10:40:36;;;;;;;1.10;1.10;;;14.90;80.80;;;;;;601644;238;26618;-68
2022/04/07 10:43:11;;;;;;;1.73;1.62;;;14.80;80.30;;;;;;601247;239;26641;-68
2022/04/07 10:45:38;;;;;;;2.83;2.62;;;14.60;79.90;;;;;;601537;237;26620;-68
2022/04/07 10:48:17;;;;;;;1.00;1.00;;;14.50;82.00;;;;;;601543;237;26866;-68
2022/04/07 10:50:48;;;;;;;1.52;1.45;;;14.40;84.40;;;;;;603056;237;26621;-67
2022/04/07 10:53:20;;;;;;;1.00;0.90;;;14.50;85.40;;;;;;602666;236;26592;-68
2022/04/07 10:56:01;;;;;;;1.40;1.33;;;14.40;85.20;;;;;;601579;238;26649;-68
2022/04/07 10:58:38;;;;;;;0.80;0.80;;;14.40;85.50;;;;;;602314;238;26885;-68
2022/04/07 11:01:06;;;;;;;0.77;0.77;;;14.30;88.50;;;;;;602125;237;26604;-67
2022/04/07 11:03:35;;;;;;;1.00;1.00;;;14.20;88.30;;;;;;602150;237;26569;-67
2022/04/07 11:06:06;;;;;;;1.08;1.08;;;14.10;89.50;;;;;;602100;239;26624;-67
2022/04/07 11:08:31;;;;;;;1.10;1.00;;;14.00;89.30;;;;;;601795;239;26582;-68
2022/04/07 11:10:59;;;;;;;0.95;0.82;;;13.80;88.90;;;;;;601872;239;26550;-68
2022/04/07 11:13:38;;;;;;;0.90;0.90;;;13.80;88.90;;;;;;601826;237;26582;-68
2022/04/07 11:16:06;;;;;;;1.05;1.05;;;13.90;88.90;;;;;;601814;239;26854;-68
2022/04/07 11:18:44;;;;;;;1.92;1.80;;;13.80;89.50;;;;;;600764;232;26590;-67
2022/04/07 11:21:11;;;;;;;1.45;1.35;;;13.80;89.00;;;;;;601160;238;26823;-67
2022/04/07 11:23:41;;;;;;;1.33;1.08;;;13.90;88.70;;;;;;602086;239;26558;-68
2022/04/07 11:26:09;;;;;;;1.00;1.00;;;14.00;88.60;;;;;;601630;239;26629;-67
2022/04/07 11:28:37;;;;;;;2.08;1.90;;;14.00;88.70;;;;;;601919;237;26597;-67
2022/04/07 11:31:05;;;;;;;2.08;1.98;;;14.00;87.90;;;;;;601865;233;26604;-67
2022/04/07 11:33:36;;;;;;;1.40;1.30;;;14.00;86.90;;;;;;601941;239;26621;-67
2022/04/07 11:36:24;;;;;;;1.23;1.10;;;13.90;86.80;;;;;;601857;237;26642;-68
2022/04/07 11:38:54;;;;;;;1.67;1.58;;;13.90;86.40;;;;;;601964;239;26810;-67
2022/04/07 11:41:18;;;;;;;0.90;0.90;;;13.90;86.90;;;;;;601546;239;26617;-68
2022/04/07 11:43:47;;;;;;;5.12;4.70;;;14.00;87.50;;;;;;601509;237;26863;-68
2022/04/07 11:46:15;;;;;;;1.30;0.98;;;14.20;86.10;;;;;;601503;239;26665;-68
2022/04/07 11:48:42;;;;;;;1.85;1.75;;;14.30;85.90;;;;;;601531;237;26879;-68
2022/04/07 11:51:09;;;;;;;1.00;1.00;;;14.20;85.50;;;;;;601556;239;26626;-67
2022/04/07 11:53:37;;;;;;;4.82;4.43;;;14.20;85.90;;;;;;601495;239;26642;-68
2022/04/07 11:56:11;;;;;;;2.40;1.80;;;14.20;86.90;;;;;;601454;239;26954;-67
2022/04/07 11:58:38;;;;;;;2.58;2.37;;;14.00;88.70;;;;;;601553;239;26904;-68
2022/04/07 12:01:07;;;;;;;2.42;2.33;;;14.00;89.90;;;;;;602302;237;26616;-68
2022/04/07 12:03:34;;;;;;;2.50;2.40;;;13.80;90.30;;;;;;602880;232;26644;-68
2022/04/07 12:06:01;;;;;;;2.78;2.58;;;13.70;90.60;;;;;;602491;237;26613;-68
2022/04/07 12:08:29;;;;;;;2.65;2.45;;;13.50;91.00;;;;;;602510;237;26577;-68
2022/04/07 12:10:57;;;;;;;2.62;2.45;;;13.40;91.60;;;;;;602259;237;26610;-67
2022/04/07 12:13:25;;;;;;;1.92;1.80;;;13.40;92.10;;;;;;602188;237;26570;-67
2022/04/07 12:15:52;;;;;;;1.92;1.83;;;13.30;92.00;;;;;;602185;237;26609;-67
2022/04/07 12:18:25;;;;;;;2.92;2.20;;;13.20;92.50;;;;;;602168;237;26617;-67
2022/04/07 12:20:58;;;;;;;1.75;1.65;;;13.20;92.50;;;;;;601918;233;26588;-67
2022/04/07 12:23:24;;;;;;;2.03;1.92;;;13.20;93.10;;;;;;601792;239;26563;-67
2022/04/07 12:25:52;;;;;;;7.62;6.87;;;13.10;92.90;;;;;;601741;239;26830;-67
2022/04/07 12:28:20;;;;;;;1.60;1.50;;;13.00;93.20;;;;;;601266;239;26588;-67
2022/04/07 12:30:48;;;;;;;1.27;1.17;;;13.00;93.50;;;;;;601804;239;26812;-67
2022/04/07 12:33:27;;;;;;;4.43;2.72;;;12.90;94.10;;;;;;601587;239;26792;-67
2022/04/07 12:35:54;;;;;;;3.10;2.90;;;13.00;94.30;;;;;;601785;238;26613;-67
2022/04/07 12:38:22;;;;;;;1.50;1.40;;;12.90;93.80;;;;;;601568;239;26715;-66
2022/04/07 12:40:50;;;;;;;1.70;1.60;;;12.90;94.20;;;;;;601566;238;26648;-67
2022/04/07 12:43:17;;;;;;;5.40;4.90;;;12.90;94.20;;;;;;601558;237;26630;-68
2022/04/07 12:45:54;;;;;;;1.60;1.50;;;12.90;93.90;;;;;;601550;237;26657;-67
2022/04/07 12:48:23;;;;;;;2.33;2.00;;;13.00;94.50;;;;;;601534;237;26640;-67
2022/04/07 12:50:49;;;;;;;1.23;1.23;;;13.00;94.60;;;;;;601829;237;26660;-67
2022/04/07 12:53:30;;;;;;;1.30;1.20;;;13.00;95.20;;;;;;601913;237;26605;-66
2022/04/07 12:56:02;;;;;;;1.10;1.10;;;12.90;95.30;;;;;;601881;237;26622;-67